Time;durP1;ratioP1;P1;durP2;ratioP2;P2;SDS_P1;SDS_P2;PMS_P1;PMS_P2;Temp;Humidity;BMP_temperature;BMP_pressure;BME280_temperature;BME280_humidity;BME280_pressure;Samples;Min_cycle;Max_cycle;Signal;HPM_P1;HPM_P2
2023/03/31 00:01:41;;;;;;;5.80;1.07;;;16.20;55.20;;;;;;5046877;28;20742;-88
2023/03/31 00:04:11;;;;;;;1.50;1.20;;;16.00;56.00;;;;;;5049411;28;20453;-88
2023/03/31 00:06:41;;;;;;;3.90;1.10;;;15.90;55.80;;;;;;5025805;28;20532;-87
2023/03/31 00:09:10;;;;;;;4.67;0.93;;;15.80;56.50;;;;;;5067185;28;20997;-88
2023/03/31 00:11:37;;;;;;;3.00;1.00;;;15.80;56.20;;;;;;5041189;28;20457;-88
2023/03/31 00:14:06;;;;;;;4.10;1.20;;;15.90;56.00;;;;;;5061050;28;20533;-88
2023/03/31 00:16:35;;;;;;;1.37;0.90;;;15.80;56.10;;;;;;5052729;28;20468;-87
2023/03/31 00:19:02;;;;;;;5.27;1.23;;;15.80;56.40;;;;;;5048310;28;20482;-87
2023/03/31 00:21:32;;;;;;;3.17;1.10;;;15.70;56.20;;;;;;5056003;28;20468;-88
2023/03/31 00:24:01;;;;;;;2.70;1.20;;;15.60;56.90;;;;;;5061027;28;20433;-88
2023/03/31 00:26:28;;;;;;;2.70;0.90;;;15.60;57.00;;;;;;5051343;28;20460;-89
2023/03/31 00:28:56;;;;;;;1.37;1.10;;;15.40;57.40;;;;;;5042144;28;20472;-88
2023/03/31 00:31:24;;;;;;;4.23;1.10;;;15.40;57.50;;;;;;5030522;28;20449;-89
2023/03/31 00:33:53;;;;;;;1.50;1.00;;;15.60;57.50;;;;;;5061350;28;20491;-90
2023/03/31 00:36:26;;;;;;;1.67;0.90;;;15.60;57.30;;;;;;5045998;28;20469;-90
2023/03/31 00:38:53;;;;;;;1.60;1.03;;;15.70;57.20;;;;;;5025823;28;20518;-89
2023/03/31 00:41:20;;;;;;;4.07;1.10;;;15.60;57.10;;;;;;5062148;28;20824;-89
2023/03/31 00:44:05;;;;;;;4.60;1.23;;;15.40;57.40;;;;;;5071698;28;20465;-89
2023/03/31 00:46:34;;;;;;;6.40;1.33;;;15.40;57.80;;;;;;5086558;28;20449;-89
2023/03/31 00:49:03;;;;;;;2.47;2.00;;;15.50;57.30;;;;;;5086488;27;20545;-89
2023/03/31 00:51:33;;;;;;;5.17;1.33;;;15.60;57.10;;;;;;5060156;28;20958;-88
2023/03/31 00:54:07;;;;;;;1.90;1.10;;;15.30;57.70;;;;;;5062339;28;20644;-88
2023/03/31 00:56:37;;;;;;;2.00;1.10;;;15.40;57.80;;;;;;5028771;28;20476;-90
2023/03/31 00:59:10;;;;;;;4.47;1.00;;;15.40;57.70;;;;;;5062782;28;20489;-90
2023/03/31 01:01:41;;;;;;;5.60;1.37;;;15.30;58.10;;;;;;5064479;28;20974;-88
2023/03/31 01:04:13;;;;;;;5.23;1.20;;;15.40;58.00;;;;;;5095944;28;20482;-88
2023/03/31 01:06:50;;;;;;;3.20;1.17;;;15.60;57.50;;;;;;5059964;28;20450;-87
2023/03/31 01:09:17;;;;;;;5.77;1.43;;;15.60;58.00;;;;;;5050875;28;20476;-87
2023/03/31 01:11:46;;;;;;;2.60;1.07;;;15.30;57.90;;;;;;5031701;28;20481;-88
2023/03/31 01:14:14;;;;;;;7.23;1.10;;;15.40;58.00;;;;;;5064238;28;20540;-87
2023/03/31 01:16:41;;;;;;;9.33;1.40;;;15.50;57.70;;;;;;5076401;28;20560;-88
2023/03/31 01:19:18;;;;;;;2.87;1.57;;;15.60;57.50;;;;;;5062304;28;20473;-87
2023/03/31 01:22:13;;;;;;;1.83;1.30;;;15.90;56.90;;;;;;5059046;28;20456;-88
2023/03/31 01:25:21;;;;;;;4.30;1.17;;;16.20;56.50;;;;;;5016965;28;20456;-88
2023/03/31 01:28:08;;;;;;;1.47;1.37;;;16.20;56.30;;;;;;5059695;28;20468;-88
2023/03/31 01:31:11;;;;;;;1.23;1.13;;;16.30;55.70;;;;;;5064217;28;20442;-89
2023/03/31 01:34:07;;;;;;;4.93;1.37;;;16.30;55.50;;;;;;5037511;28;20452;-88
2023/03/31 01:37:23;;;;;;;2.53;1.60;;;16.30;55.50;;;;;;5072337;28;20564;-87
2023/03/31 01:40:13;;;;;;;3.20;1.50;;;16.30;55.70;;;;;;4981747;28;20449;-88
2023/03/31 01:42:45;;;;;;;3.60;1.00;;;16.50;55.60;;;;;;5073449;28;20457;-87
2023/03/31 01:45:22;;;;;;;4.00;1.37;;;16.50;55.20;;;;;;5064375;28;20491;-89
2023/03/31 01:47:56;;;;;;;6.00;1.50;;;16.30;55.30;;;;;;5030535;28;20464;-88
2023/03/31 01:50:28;;;;;;;4.57;1.10;;;16.30;55.50;;;;;;5072068;28;20506;-88
2023/03/31 01:53:02;;;;;;;6.10;1.20;;;16.30;55.60;;;;;;5026790;28;20570;-91
2023/03/31 01:55:36;;;;;;;3.47;1.33;;;16.30;56.10;;;;;;5071502;28;20456;-87
2023/03/31 01:58:10;;;;;;;7.13;2.00;;;16.40;55.70;;;;;;5045200;28;20472;-86
2023/03/31 02:00:41;;;;;;;6.40;1.50;;;16.30;55.40;;;;;;5056138;28;20453;-88
2023/03/31 02:03:15;;;;;;;3.40;1.90;;;16.30;55.40;;;;;;5057684;28;20445;-88
2023/03/31 02:05:47;;;;;;;3.17;1.60;;;16.10;55.20;;;;;;5047605;28;20552;-88
2023/03/31 02:08:17;;;;;;;8.27;1.47;;;15.90;55.50;;;;;;5056224;28;20941;-88
2023/03/31 02:10:46;;;;;;;8.30;1.70;;;16.10;55.20;;;;;;5060360;28;20523;-88
2023/03/31 02:13:16;;;;;;;5.53;1.60;;;16.10;55.30;;;;;;5063300;28;20493;-87
2023/03/31 02:15:46;;;;;;;5.97;1.80;;;16.10;55.00;;;;;;5041117;28;20476;-87
2023/03/31 02:18:17;;;;;;;2.10;1.53;;;16.30;55.00;;;;;;5058404;28;20466;-87
2023/03/31 02:20:47;;;;;;;2.47;1.30;;;16.40;54.70;;;;;;5060044;28;20473;-87
2023/03/31 02:23:21;;;;;;;4.30;1.60;;;16.40;54.70;;;;;;5055164;28;20876;-88
2023/03/31 02:25:53;;;;;;;4.90;2.13;;;16.30;54.90;;;;;;5069617;28;20448;-89
2023/03/31 02:28:23;;;;;;;3.10;1.73;;;16.10;54.80;;;;;;5056499;28;20512;-87
2023/03/31 02:31:02;;;;;;;3.20;1.30;;;15.80;55.70;;;;;;5056733;28;20449;-87
2023/03/31 02:33:29;;;;;;;3.27;1.60;;;15.80;55.90;;;;;;5055377;28;20956;-88
2023/03/31 02:35:56;;;;;;;3.80;1.80;;;15.70;55.90;;;;;;5048515;28;20473;-88
2023/03/31 02:38:22;;;;;;;2.70;1.90;;;16.00;55.70;;;;;;5059093;28;20554;-89
2023/03/31 02:40:51;;;;;;;4.30;2.03;;;16.10;55.60;;;;;;5028890;28;20544;-87
2023/03/31 02:43:18;;;;;;;6.73;1.50;;;16.10;55.40;;;;;;5047370;28;20979;-86
2023/03/31 02:45:46;;;;;;;4.40;1.20;;;16.20;55.10;;;;;;5056956;28;20528;-87
2023/03/31 02:48:18;;;;;;;4.60;1.93;;;16.10;55.00;;;;;;5027798;28;20518;-87
2023/03/31 02:51:16;;;;;;;7.93;2.40;;;16.10;55.30;;;;;;5056515;28;20540;-87
2023/03/31 02:53:56;;;;;;;3.53;1.60;;;16.00;55.40;;;;;;5064598;28;20480;-88
2023/03/31 02:56:44;;;;;;;5.33;1.80;;;16.00;55.30;;;;;;5066130;28;20479;-88
2023/03/31 02:59:23;;;;;;;10.47;2.50;;;15.70;56.10;;;;;;5043399;28;20466;-86
2023/03/31 03:02:08;;;;;;;3.97;1.60;;;16.00;55.90;;;;;;5046771;28;20461;-87
2023/03/31 03:05:12;;;;;;;8.43;1.60;;;16.10;55.50;;;;;;5060566;28;20442;-87
2023/03/31 03:07:48;;;;;;;7.20;1.43;;;16.10;55.50;;;;;;5054671;28;20522;-87
2023/03/31 03:10:24;;;;;;;8.10;1.53;;;16.10;55.30;;;;;;5030874;28;20456;-87
2023/03/31 03:12:58;;;;;;;4.43;1.50;;;16.20;55.30;;;;;;5044939;28;20522;-89
2023/03/31 03:15:30;;;;;;;3.13;1.40;;;16.20;55.20;;;;;;5046319;28;20449;-87
2023/03/31 03:17:58;;;;;;;3.87;1.30;;;16.20;55.30;;;;;;5024373;28;20973;-88
2023/03/31 03:20:25;;;;;;;6.40;2.00;;;16.00;55.90;;;;;;5039217;28;20448;-86
2023/03/31 03:22:52;;;;;;;6.20;1.73;;;16.10;55.80;;;;;;5056401;28;20456;-88
2023/03/31 03:25:20;;;;;;;8.53;2.07;;;16.00;56.00;;;;;;5056147;28;20532;-87
2023/03/31 03:27:47;;;;;;;3.57;1.43;;;16.00;56.20;;;;;;5028316;28;21042;-87
2023/03/31 03:30:15;;;;;;;6.10;2.10;;;15.70;56.90;;;;;;5061819;28;20449;-88
2023/03/31 03:32:42;;;;;;;5.53;1.73;;;15.50;57.70;;;;;;5025114;28;20454;-87
2023/03/31 03:35:10;;;;;;;5.77;1.60;;;15.40;58.40;;;;;;5060817;28;20449;-87
2023/03/31 03:37:38;;;;;;;5.57;1.50;;;15.20;58.80;;;;;;5024284;28;20470;-87
2023/03/31 03:40:06;;;;;;;6.53;2.07;;;15.00;59.80;;;;;;5057164;28;20539;-86
2023/03/31 03:42:33;;;;;;;7.13;1.63;;;14.80;60.20;;;;;;5061157;28;20484;-88
2023/03/31 03:45:01;;;;;;;4.03;1.60;;;15.10;60.60;;;;;;5060914;28;20446;-87
2023/03/31 03:47:29;;;;;;;7.33;1.53;;;15.10;60.50;;;;;;5054229;28;20477;-89
2023/03/31 03:49:56;;;;;;;4.07;1.80;;;15.30;60.20;;;;;;5089288;28;20446;-88
2023/03/31 03:54:57;;;;;;;1.40;1.30;;;15.20;61.00;;;;;;5083733;28;20460;-87
2023/03/31 03:57:25;;;;;;;4.30;1.43;;;15.20;60.40;;;;;;5073178;28;20483;-89
2023/03/31 03:59:52;;;;;;;11.53;2.63;;;15.00;60.50;;;;;;5052495;28;20460;-87
2023/03/31 04:02:19;;;;;;;4.47;1.47;;;15.10;60.80;;;;;;5054293;28;20461;-88
2023/03/31 04:04:47;;;;;;;5.43;1.53;;;15.20;60.80;;;;;;5053744;28;22115;-88
2023/03/31 04:07:14;;;;;;;7.50;1.70;;;15.10;60.20;;;;;;5062257;28;20597;-87
2023/03/31 04:09:41;;;;;;;2.50;1.43;;;15.00;60.90;;;;;;5055609;28;20958;-87
2023/03/31 04:12:08;;;;;;;6.70;2.03;;;15.00;60.60;;;;;;5068883;28;20669;-87
2023/03/31 04:14:35;;;;;;;3.57;1.80;;;14.90;61.00;;;;;;5061456;28;20461;-88
2023/03/31 04:17:02;;;;;;;3.37;1.80;;;15.10;60.50;;;;;;5050896;28;20461;-87
2023/03/31 04:19:29;;;;;;;3.83;1.90;;;15.10;60.40;;;;;;5020155;28;20956;-88
2023/03/31 04:22:01;;;;;;;6.90;1.53;;;15.00;60.60;;;;;;5028298;28;20544;-87
2023/03/31 04:24:31;;;;;;;4.23;1.83;;;15.00;60.60;;;;;;5065105;28;20457;-87
2023/03/31 04:27:01;;;;;;;5.37;1.70;;;15.00;60.10;;;;;;5058931;28;20460;-87
2023/03/31 04:29:32;;;;;;;2.27;1.27;;;15.20;60.20;;;;;;5057602;28;21353;-88
2023/03/31 04:31:59;;;;;;;4.10;1.43;;;15.30;59.70;;;;;;5060438;28;20452;-88
2023/03/31 04:34:33;;;;;;;4.60;2.90;;;15.50;59.30;;;;;;5057279;28;21018;-90
2023/03/31 04:37:02;;;;;;;4.07;1.30;;;15.40;58.80;;;;;;5034652;28;20986;-90
2023/03/31 04:39:30;;;;;;;2.40;1.57;;;15.30;58.90;;;;;;5053564;28;20453;-90
2023/03/31 04:41:58;;;;;;;4.10;1.80;;;15.30;59.10;;;;;;5032065;28;20449;-90
2023/03/31 04:44:25;;;;;;;9.40;5.97;;;15.30;58.80;;;;;;5064249;28;20448;-88
2023/03/31 04:46:53;;;;;;;9.40;3.03;;;15.40;58.80;;;;;;5062535;28;20866;-86
2023/03/31 04:49:19;;;;;;;4.40;1.73;;;15.40;58.20;;;;;;5064263;28;21202;-87
2023/03/31 04:51:46;;;;;;;5.47;1.70;;;15.10;58.60;;;;;;5062772;28;20831;-87
2023/03/31 04:54:15;;;;;;;3.67;1.83;;;15.20;58.90;;;;;;5061042;28;21040;-88
2023/03/31 04:56:42;;;;;;;3.80;1.67;;;15.10;58.80;;;;;;5064983;28;20483;-87
2023/03/31 04:59:09;;;;;;;8.17;1.60;;;15.20;58.50;;;;;;5052736;28;20485;-88
2023/03/31 05:01:37;;;;;;;2.60;1.57;;;15.10;59.30;;;;;;5063243;28;20445;-89
2023/03/31 05:04:05;;;;;;;2.60;1.50;;;15.10;59.10;;;;;;5097389;28;20448;-88
2023/03/31 05:06:32;;;;;;;3.43;1.77;;;14.90;59.30;;;;;;5054663;28;20515;-87
2023/03/31 05:08:59;;;;;;;5.43;2.83;;;15.10;59.30;;;;;;5053023;28;20840;-88
2023/03/31 05:11:28;;;;;;;14.33;4.67;;;15.20;59.10;;;;;;5069132;28;20461;-88
2023/03/31 05:13:56;;;;;;;12.00;6.33;;;15.40;58.90;;;;;;5048022;28;20487;-87
2023/03/31 05:16:23;;;;;;;16.13;5.77;;;15.10;59.00;;;;;;5074515;28;20482;-88
2023/03/31 05:18:50;;;;;;;3.53;1.90;;;15.10;59.40;;;;;;5074647;28;20556;-88
2023/03/31 05:21:19;;;;;;;5.47;2.80;;;15.20;58.90;;;;;;5044508;28;20966;-89
2023/03/31 05:23:46;;;;;;;8.53;5.20;;;15.10;59.40;;;;;;5057103;28;20456;-88
2023/03/31 05:26:14;;;;;;;4.87;3.13;;;15.30;59.10;;;;;;5067717;28;20476;-87
2023/03/31 05:28:43;;;;;;;5.50;2.80;;;15.40;58.80;;;;;;5043001;28;20466;-89
2023/03/31 05:31:11;;;;;;;13.03;5.10;;;15.30;59.00;;;;;;5065509;28;20462;-88
2023/03/31 05:33:40;;;;;;;6.90;3.60;;;15.50;58.70;;;;;;5058876;28;20539;-87
2023/03/31 05:36:09;;;;;;;5.50;2.77;;;15.40;58.70;;;;;;5070809;28;20440;-88
2023/03/31 05:38:36;;;;;;;4.43;2.50;;;15.10;59.70;;;;;;5086233;28;20541;-87
2023/03/31 05:41:03;;;;;;;11.53;10.17;;;15.30;59.70;;;;;;5086572;28;20444;-88
2023/03/31 05:43:30;;;;;;;8.70;4.37;;;15.50;59.40;;;;;;5072923;28;20437;-88
2023/03/31 05:45:58;;;;;;;7.80;3.47;;;15.40;59.50;;;;;;5034463;28;20513;-89
2023/03/31 05:48:25;;;;;;;7.30;3.40;;;15.40;59.90;;;;;;5060871;28;20480;-88
2023/03/31 05:50:56;;;;;;;17.27;8.27;;;15.40;60.30;;;;;;5071785;28;20960;-88
2023/03/31 05:53:23;;;;;;;9.50;5.60;;;15.30;61.00;;;;;;5086842;28;20460;-89
2023/03/31 05:55:56;;;;;;;3.00;2.00;;;15.40;60.80;;;;;;5045047;28;20469;-89
2023/03/31 05:58:23;;;;;;;2.83;2.10;;;15.40;60.40;;;;;;5081443;28;20523;-89
2023/03/31 06:00:52;;;;;;;9.60;5.23;;;15.40;59.90;;;;;;5071334;28;20448;-87
2023/03/31 06:03:21;;;;;;;9.43;6.00;;;15.50;60.20;;;;;;5054743;28;20451;-88
2023/03/31 06:05:49;;;;;;;15.50;10.00;;;15.60;60.60;;;;;;5060221;28;20441;-87
2023/03/31 06:08:15;;;;;;;24.67;11.90;;;15.60;60.70;;;;;;5035150;28;20469;-87
2023/03/31 06:10:42;;;;;;;21.27;11.63;;;15.60;61.00;;;;;;5074928;28;20468;-87
2023/03/31 06:13:09;;;;;;;22.90;13.83;;;15.60;60.80;;;;;;5057287;28;20441;-86
2023/03/31 06:15:36;;;;;;;23.33;12.00;;;15.70;60.70;;;;;;5034149;28;20548;-87
2023/03/31 06:18:06;;;;;;;13.93;5.57;;;15.40;60.90;;;;;;5045590;28;20476;-87
2023/03/31 06:20:34;;;;;;;14.77;6.23;;;15.30;61.60;;;;;;5073238;28;20531;-89
2023/03/31 06:23:01;;;;;;;14.60;5.47;;;15.30;61.60;;;;;;5033589;28;20487;-89
2023/03/31 06:25:29;;;;;;;6.70;2.80;;;15.40;61.60;;;;;;5063570;28;20442;-88
2023/03/31 06:27:56;;;;;;;15.60;8.20;;;15.40;61.10;;;;;;5065483;28;21094;-88
2023/03/31 06:30:23;;;;;;;18.30;7.43;;;15.40;61.10;;;;;;5073421;28;20452;-88
2023/03/31 06:32:50;;;;;;;10.80;7.23;;;15.30;61.80;;;;;;5070386;28;20549;-88
2023/03/31 06:35:18;;;;;;;6.00;2.30;;;14.90;62.40;;;;;;5068317;28;20465;-88
2023/03/31 06:37:53;;;;;;;4.77;2.97;;;14.60;63.90;;;;;;5063783;28;20487;-90
2023/03/31 06:40:21;;;;;;;12.10;5.03;;;14.60;64.50;;;;;;5059662;28;20515;-87
2023/03/31 06:42:48;;;;;;;8.27;4.00;;;14.60;64.00;;;;;;5076421;28;20812;-90
2023/03/31 06:45:17;;;;;;;7.53;3.50;;;14.60;63.90;;;;;;5036368;28;20463;-89
2023/03/31 06:47:43;;;;;;;3.93;2.43;;;14.80;64.00;;;;;;5065245;28;20464;-88
2023/03/31 06:50:11;;;;;;;3.50;2.50;;;15.00;64.40;;;;;;5060043;28;20442;-88
2023/03/31 06:52:39;;;;;;;8.20;3.47;;;15.20;62.50;;;;;;5069926;28;20437;-87
2023/03/31 06:55:09;;;;;;;9.10;5.77;;;15.20;62.30;;;;;;5060109;28;20476;-88
2023/03/31 06:57:36;;;;;;;4.30;3.87;;;15.10;62.60;;;;;;5062266;28;20535;-87
2023/03/31 07:00:04;;;;;;;6.47;3.50;;;14.90;63.10;;;;;;5026151;28;20452;-88
2023/03/31 07:02:31;;;;;;;5.03;4.50;;;14.80;63.50;;;;;;5054512;28;20440;-89
2023/03/31 07:04:58;;;;;;;6.63;4.27;;;14.40;64.70;;;;;;5042493;28;21075;-89
2023/03/31 07:07:25;;;;;;;7.63;4.37;;;14.30;65.00;;;;;;5045371;28;20468;-86
2023/03/31 07:09:52;;;;;;;10.50;5.80;;;14.40;65.80;;;;;;5058969;28;20470;-88
2023/03/31 07:12:20;;;;;;;10.20;6.20;;;14.50;65.30;;;;;;5018919;28;20963;-88
2023/03/31 07:14:47;;;;;;;5.57;3.57;;;14.70;65.60;;;;;;5055425;28;20985;-87
2023/03/31 07:17:14;;;;;;;7.87;3.70;;;14.70;64.80;;;;;;5025117;28;20584;-86
2023/03/31 07:19:41;;;;;;;7.00;3.70;;;14.70;64.80;;;;;;5035737;28;20445;-88
2023/03/31 07:22:08;;;;;;;3.70;3.30;;;14.90;65.10;;;;;;5047446;28;20460;-86
2023/03/31 07:24:35;;;;;;;7.17;4.73;;;14.90;64.40;;;;;;5075574;28;20448;-87
2023/03/31 07:27:02;;;;;;;3.67;3.30;;;14.90;64.90;;;;;;5050631;28;20456;-87
2023/03/31 07:29:30;;;;;;;15.47;3.50;;;14.70;65.40;;;;;;5053797;28;20446;-85
2023/03/31 07:31:57;;;;;;;16.67;5.20;;;14.90;65.50;;;;;;5060242;28;20472;-86
2023/03/31 07:34:24;;;;;;;8.20;3.50;;;14.60;66.20;;;;;;5021891;28;20445;-88
2023/03/31 07:36:54;;;;;;;7.83;4.23;;;14.80;66.10;;;;;;5060626;28;20444;-87
2023/03/31 07:39:21;;;;;;;9.10;3.30;;;14.80;66.40;;;;;;5059072;28;20456;-87
2023/03/31 07:41:48;;;;;;;6.70;4.20;;;14.80;66.40;;;;;;5058294;28;20464;-88
2023/03/31 07:44:16;;;;;;;7.70;3.60;;;14.60;65.90;;;;;;5065004;28;20445;-87
2023/03/31 07:46:44;;;;;;;4.33;3.00;;;14.50;66.80;;;;;;5063689;28;20528;-88
2023/03/31 07:49:14;;;;;;;113.50;36.53;;;14.30;67.00;;;;;;5062395;28;20465;-90
2023/03/31 07:51:41;;;;;;;26.43;10.67;;;14.40;67.40;;;;;;5051739;28;20433;-90
2023/03/31 07:54:08;;;;;;;10.70;5.27;;;14.70;67.10;;;;;;5078421;28;20506;-88
2023/03/31 07:56:36;;;;;;;15.70;5.47;;;14.60;66.40;;;;;;5067122;28;20472;-88
2023/03/31 07:59:04;;;;;;;7.50;4.03;;;14.50;67.30;;;;;;5077832;28;21128;-88
2023/03/31 08:01:31;;;;;;;4.73;3.30;;;14.50;68.10;;;;;;5080259;28;20513;-90
2023/03/31 08:04:00;;;;;;;8.83;3.87;;;14.80;67.60;;;;;;5079809;28;20456;-89
2023/03/31 08:06:27;;;;;;;5.73;4.13;;;14.80;66.40;;;;;;5069781;28;20449;-88
2023/03/31 08:08:54;;;;;;;7.03;3.73;;;14.80;67.10;;;;;;5052699;28;20540;-88
2023/03/31 08:11:22;;;;;;;9.43;4.20;;;14.40;67.80;;;;;;5088971;28;20520;-88
2023/03/31 08:13:50;;;;;;;6.90;4.30;;;14.60;68.00;;;;;;5076106;28;20961;-89
2023/03/31 08:16:17;;;;;;;7.73;3.90;;;14.70;67.60;;;;;;5075902;28;20752;-88
2023/03/31 08:18:44;;;;;;;9.33;4.60;;;14.60;66.30;;;;;;5068637;28;20472;-88
2023/03/31 08:21:12;;;;;;;4.57;3.27;;;14.80;67.80;;;;;;5066869;28;20445;-88
2023/03/31 08:23:39;;;;;;;6.93;4.30;;;14.70;67.80;;;;;;5041452;28;20456;-88
2023/03/31 08:26:12;;;;;;;9.13;4.90;;;14.50;68.80;;;;;;5069726;28;20544;-89
2023/03/31 08:28:39;;;;;;;7.30;4.03;;;14.70;68.30;;;;;;5074292;28;21092;-89
2023/03/31 08:31:06;;;;;;;5.90;4.90;;;14.20;69.50;;;;;;5046204;28;20441;-88
2023/03/31 08:33:33;;;;;;;8.50;4.40;;;14.10;70.60;;;;;;5076265;28;20468;-89
2023/03/31 08:36:02;;;;;;;7.10;3.80;;;14.20;70.40;;;;;;5067937;28;20450;-90
2023/03/31 08:38:31;;;;;;;5.17;4.63;;;14.50;70.60;;;;;;5071701;28;20480;-92
2023/03/31 08:41:00;;;;;;;5.43;4.03;;;14.70;70.10;;;;;;5036832;28;21740;-88
2023/03/31 08:43:32;;;;;;;5.70;3.90;;;14.80;70.00;;;;;;5070348;28;20456;-87
2023/03/31 08:45:59;;;;;;;7.30;4.47;;;15.00;69.10;;;;;;5070865;28;20828;-88
2023/03/31 08:48:30;;;;;;;10.20;3.70;;;15.00;68.70;;;;;;5067301;28;20483;-88
2023/03/31 08:51:02;;;;;;;3.60;2.10;;;14.50;68.90;;;;;;5067020;28;20448;-88
2023/03/31 08:53:34;;;;;;;2.20;1.60;;;13.60;67.50;;;;;;5060325;28;20445;-87
2023/03/31 08:56:06;;;;;;;2.03;1.93;;;12.90;67.00;;;;;;5080303;28;20822;-87
2023/03/31 08:58:39;;;;;;;1.73;1.37;;;12.70;68.50;;;;;;5034629;28;20469;-87
2023/03/31 09:01:16;;;;;;;3.83;2.00;;;12.50;67.80;;;;;;5060988;28;20478;-87
2023/03/31 09:03:50;;;;;;;2.47;1.83;;;12.60;69.60;;;;;;5072776;28;21460;-88
2023/03/31 09:06:23;;;;;;;2.40;1.70;;;12.60;70.30;;;;;;5067379;28;20449;-87
2023/03/31 09:08:57;;;;;;;3.83;2.70;;;12.80;70.20;;;;;;5062297;28;20466;-86
2023/03/31 09:11:32;;;;;;;3.90;2.53;;;12.80;69.80;;;;;;5065545;28;20449;-92
2023/03/31 09:14:19;;;;;;;3.50;2.17;;;13.00;70.50;;;;;;5069305;28;20449;-85
2023/03/31 09:16:54;;;;;;;4.03;3.00;;;13.00;69.50;;;;;;5057500;28;20949;-86
2023/03/31 09:19:33;;;;;;;4.70;4.20;;;12.90;70.10;;;;;;5030532;28;20975;-86
2023/03/31 09:22:01;;;;;;;5.47;1.53;;;12.90;69.40;;;;;;5059015;28;21198;-87
2023/03/31 09:24:32;;;;;;;2.07;1.50;;;12.80;68.30;;;;;;5057334;28;20870;-87
2023/03/31 09:27:02;;;;;;;2.60;1.77;;;12.80;69.00;;;;;;5066525;28;20460;-88
2023/03/31 09:29:33;;;;;;;3.63;1.70;;;13.00;69.80;;;;;;5066119;28;20465;-87
2023/03/31 09:32:02;;;;;;;3.07;1.60;;;12.90;68.60;;;;;;5042323;28;20436;-87
2023/03/31 09:34:32;;;;;;;4.93;1.57;;;13.00;69.20;;;;;;5058909;28;21308;-88
2023/03/31 09:36:59;;;;;;;5.80;1.60;;;13.00;70.10;;;;;;5066266;28;20449;-87
2023/03/31 09:39:26;;;;;;;3.67;1.43;;;13.30;70.30;;;;;;5045494;28;20475;-87
2023/03/31 09:41:55;;;;;;;1.43;1.33;;;13.50;70.20;;;;;;5065620;28;20510;-87
2023/03/31 09:44:28;;;;;;;5.30;1.50;;;13.80;69.70;;;;;;5049512;28;20506;-89
2023/03/31 09:46:56;;;;;;;1.50;1.37;;;14.00;68.40;;;;;;5073563;28;20441;-85
2023/03/31 09:49:28;;;;;;;3.47;1.30;;;14.00;67.70;;;;;;5066389;28;20454;-87
2023/03/31 09:52:06;;;;;;;2.93;1.83;;;14.30;68.20;;;;;;5062836;28;20529;-87
2023/03/31 09:54:40;;;;;;;1.73;1.43;;;14.40;67.50;;;;;;5065345;28;20536;-88
2023/03/31 09:57:25;;;;;;;4.87;1.50;;;14.30;68.00;;;;;;5067418;28;20462;-88
2023/03/31 09:59:53;;;;;;;1.90;1.50;;;14.50;67.80;;;;;;5069355;28;20437;-87
2023/03/31 10:02:40;;;;;;;6.43;2.73;;;14.60;67.20;;;;;;5059367;28;20524;-88
2023/03/31 10:05:27;;;;;;;3.53;1.97;;;14.90;67.00;;;;;;5062371;28;20450;-88
2023/03/31 10:08:12;;;;;;;3.20;2.50;;;15.10;66.50;;;;;;5063645;28;20846;-88
2023/03/31 10:10:43;;;;;;;7.73;1.87;;;15.30;66.50;;;;;;5044994;28;20454;-87
2023/03/31 10:13:16;;;;;;;3.17;1.60;;;15.30;65.70;;;;;;5066994;28;20485;-86
2023/03/31 10:15:43;;;;;;;5.07;1.90;;;15.30;65.90;;;;;;5086766;28;20456;-89
2023/03/31 10:18:14;;;;;;;2.27;2.07;;;15.40;65.60;;;;;;5090931;28;20471;-88
2023/03/31 10:20:44;;;;;;;6.60;2.00;;;15.30;66.10;;;;;;5059678;28;20507;-89
2023/03/31 10:23:17;;;;;;;1.87;1.30;;;14.70;66.30;;;;;;5076187;28;20445;-88
2023/03/31 10:25:46;;;;;;;4.87;1.60;;;13.80;66.80;;;;;;5044257;28;20449;-88
2023/03/31 10:28:18;;;;;;;2.20;1.30;;;13.60;67.90;;;;;;5066677;28;20466;-88
2023/03/31 10:30:49;;;;;;;5.87;3.60;;;13.20;67.20;;;;;;5064732;28;20532;-88
2023/03/31 10:33:19;;;;;;;2.20;1.20;;;13.10;69.30;;;;;;5076376;28;20454;-88
2023/03/31 10:35:49;;;;;;;2.50;1.10;;;12.90;67.50;;;;;;5055505;28;20444;-88
2023/03/31 10:38:23;;;;;;;1.10;1.00;;;12.70;67.00;;;;;;5061006;28;20480;-87
2023/03/31 10:40:53;;;;;;;2.93;0.97;;;12.60;68.50;;;;;;5061725;28;20448;-88
2023/03/31 10:43:26;;;;;;;1.97;0.77;;;12.50;68.50;;;;;;5059927;28;20440;-88
2023/03/31 10:45:56;;;;;;;0.80;0.70;;;12.60;69.30;;;;;;5045134;28;21008;-89
2023/03/31 10:48:26;;;;;;;2.13;1.30;;;12.50;68.60;;;;;;5056695;28;20526;-90
2023/03/31 10:50:53;;;;;;;2.77;1.13;;;12.40;69.10;;;;;;5047497;28;20774;-89
2023/03/31 10:53:21;;;;;;;1.80;1.00;;;12.10;67.90;;;;;;5092957;28;20456;-89
2023/03/31 10:56:01;;;;;;;1.07;0.97;;;12.30;68.70;;;;;;5065138;28;20939;-89
2023/03/31 10:58:43;;;;;;;1.00;0.90;;;12.50;66.40;;;;;;5070711;28;20483;-88
2023/03/31 11:01:21;;;;;;;1.00;0.90;;;12.80;67.50;;;;;;5078972;28;20531;-89
2023/03/31 11:04:33;;;;;;;1.00;0.90;;;13.30;67.00;;;;;;5067981;28;20467;-88
2023/03/31 11:07:09;;;;;;;1.43;1.20;;;13.80;65.80;;;;;;4991282;28;20452;-87
2023/03/31 11:09:49;;;;;;;1.97;1.83;;;14.00;63.70;;;;;;5068763;28;20444;-88
2023/03/31 11:12:21;;;;;;;2.47;1.40;;;14.10;63.60;;;;;;5063341;28;20458;-88
2023/03/31 11:15:05;;;;;;;1.93;1.37;;;14.00;63.00;;;;;;5042992;28;20535;-89
2023/03/31 11:17:46;;;;;;;1.80;1.40;;;13.90;63.50;;;;;;5062436;28;20465;-88
2023/03/31 11:20:25;;;;;;;1.40;1.00;;;14.00;63.00;;;;;;5068621;28;20475;-88
2023/03/31 11:22:59;;;;;;;4.00;1.00;;;13.80;62.20;;;;;;5063812;28;20458;-87
2023/03/31 11:25:38;;;;;;;4.63;2.53;;;13.80;63.00;;;;;;5032756;28;20449;-87
2023/03/31 11:28:26;;;;;;;1.40;1.00;;;14.00;63.90;;;;;;5062537;28;20478;-89
2023/03/31 11:31:05;;;;;;;2.30;1.00;;;14.10;63.80;;;;;;5080323;28;20861;-88
2023/03/31 11:33:53;;;;;;;2.47;1.43;;;14.40;64.50;;;;;;5081367;28;20875;-91
2023/03/31 11:36:36;;;;;;;3.27;1.10;;;14.50;62.10;;;;;;5042221;28;20441;-89
2023/03/31 11:39:19;;;;;;;1.77;0.90;;;15.00;63.60;;;;;;5063330;28;21435;-89
2023/03/31 11:41:50;;;;;;;1.73;0.97;;;15.10;64.10;;;;;;5071488;28;20954;-88
2023/03/31 11:44:20;;;;;;;2.73;1.00;;;15.10;62.30;;;;;;5078994;28;20488;-87
2023/03/31 11:46:54;;;;;;;3.13;2.57;;;15.10;60.90;;;;;;5034981;28;20533;-88
2023/03/31 11:49:24;;;;;;;3.20;1.17;;;15.20;61.50;;;;;;5069578;28;20457;-88
2023/03/31 11:51:55;;;;;;;3.03;1.20;;;15.30;61.80;;;;;;5051897;28;21118;-88
2023/03/31 11:54:30;;;;;;;4.30;1.37;;;15.00;63.10;;;;;;5071132;28;20482;-88
2023/03/31 11:56:58;;;;;;;6.20;1.30;;;15.00;63.80;;;;;;5069666;28;20452;-88
2023/03/31 11:59:30;;;;;;;2.27;1.30;;;14.80;65.30;;;;;;5076670;28;20469;-88
2023/03/31 12:02:10;;;;;;;2.40;1.00;;;14.90;64.80;;;;;;5079058;28;20562;-89
2023/03/31 12:04:39;;;;;;;2.30;2.10;;;15.10;65.30;;;;;;5066830;28;20472;-88
2023/03/31 12:07:24;;;;;;;2.30;1.00;;;15.10;64.10;;;;;;5069026;28;20471;-89
2023/03/31 12:10:01;;;;;;;2.30;1.20;;;14.90;63.40;;;;;;5067140;28;20442;-88
2023/03/31 12:12:31;;;;;;;1.40;1.20;;;14.70;65.90;;;;;;5063008;28;20473;-86
2023/03/31 12:15:07;;;;;;;2.27;1.00;;;14.90;66.10;;;;;;5068038;28;20457;-87
2023/03/31 12:17:36;;;;;;;3.43;2.50;;;15.00;64.50;;;;;;5052873;28;20931;-89
2023/03/31 12:20:12;;;;;;;3.73;1.03;;;15.30;64.70;;;;;;5062968;28;20469;-90
2023/03/31 12:22:43;;;;;;;2.30;0.93;;;15.20;61.90;;;;;;5050710;28;20473;-88
2023/03/31 12:25:13;;;;;;;3.03;1.00;;;15.30;61.90;;;;;;5072355;28;20461;-92
2023/03/31 12:27:42;;;;;;;4.37;1.20;;;15.30;60.90;;;;;;5065874;28;21017;-88
2023/03/31 12:30:13;;;;;;;2.37;0.90;;;15.30;63.00;;;;;;5072315;28;20464;-86
2023/03/31 12:32:46;;;;;;;3.67;1.27;;;15.30;61.00;;;;;;5069262;28;20506;-88
2023/03/31 12:35:19;;;;;;;2.60;1.33;;;15.50;62.70;;;;;;5062227;28;20817;-89
2023/03/31 12:38:06;;;;;;;2.77;1.53;;;15.60;60.50;;;;;;5031264;28;20480;-88
2023/03/31 12:40:52;;;;;;;1.50;0.90;;;15.60;59.70;;;;;;5067688;28;20465;-87
2023/03/31 12:43:31;;;;;;;2.10;1.20;;;15.90;61.90;;;;;;5033999;28;20452;-87
2023/03/31 12:46:08;;;;;;;3.80;0.97;;;16.30;59.30;;;;;;5083748;28;20448;-88
2023/03/31 12:48:56;;;;;;;0.90;0.80;;;16.40;60.00;;;;;;5068702;28;21459;-90
2023/03/31 12:51:47;;;;;;;3.00;1.33;;;16.70;58.80;;;;;;5054124;28;20445;-88
2023/03/31 12:54:36;;;;;;;6.27;2.23;;;16.80;59.00;;;;;;5070323;28;20449;-90
2023/03/31 12:57:12;;;;;;;2.30;1.27;;;17.10;59.00;;;;;;5060729;28;20445;-89
2023/03/31 12:59:40;;;;;;;5.53;2.20;;;17.30;58.40;;;;;;5063743;28;20468;-88
2023/03/31 13:02:25;;;;;;;4.30;2.10;;;17.50;57.50;;;;;;5062348;28;20445;-89
2023/03/31 13:04:54;;;;;;;2.23;1.87;;;17.70;56.00;;;;;;5080771;28;20442;-90
2023/03/31 13:07:41;;;;;;;4.43;1.73;;;17.80;57.20;;;;;;5057594;28;20472;-88
2023/03/31 13:10:29;;;;;;;3.10;1.20;;;17.70;57.20;;;;;;5060153;28;20538;-88
2023/03/31 13:13:04;;;;;;;4.07;1.03;;;17.40;57.10;;;;;;5078782;28;20456;-87